AirNav   ProFlight Series 2 Aviation Headset
 
 584 users online  

NY83 Essex Boatworks Seaplane Base
Essex, New York, USA

GOING TO ESSEX?


FAA INFORMATION EFFECTIVE 16 JULY 2020

Location

FAA Identifier: NY83
Lat/Long: 44-18-00.1840N 073-20-58.4590W
44-18.003067N 073-20.974317W
44.3000511,-73.3495719
(estimated)
Elevation: 95 ft. / 29 m (estimated)
Variation: 15W (1985)
Time zone: UTC -4 (UTC -5 during Standard Time)
Zip code: 12936

Seaplane Base Operations

Seaplane Base use: Private use. Permission required prior to landing
Activation date: 08/1961
Control tower: no
ARTCC: BOSTON CENTER
FSS: BURLINGTON FLIGHT SERVICE STATION
Attendance: MAY-OCT DAYLIGHT HOURS
Wind indicator: no
Segmented circle: no

Seaplane Base Communications

WX ASOS at BTV (13 nm NE): 123.8 (802-657-4490)

Nearby radio navigation aids

VOR radial/distance  VOR name  Freq  Var
BTVr246/9.2BURLINGTON VOR/DME117.5015W
SLKr112/37.0SARANAC LAKE VOR/DME109.2014W

 
NDB name  Hdg/Dist  Freq  Var  ID
HERRO212/14.638215WBT -... -
SMUTO350/39.522115WDYO -.. -.-- ---

Seaplane Base Services

Fuel available: 100
Airframe service: MINOR
Powerplant service: MINOR

Runway Information

Runway ALL/WAY

Dimensions: 15000 x 4000 ft. / 4572 x 1219 m
LNDG AREA 50 MI BY 3 MI ALL DIRECTIONS PSBL.
Surface: water
RUNWAY ALL  RUNWAY WAY
Traffic pattern: leftleft

Seaplane Base Ownership and Management from official FAA records

Ownership: Privately-owned
Owner: TODD WILLIAM BURLEY
S MAIN ST
ESSEX, NY 12936
Manager: TODD BURLEY
S MAIN ST
ESSEX, NY 12936
Phone (802) 793-5304

Additional Remarks

FOR CD CTC BURLINGTON APCH AT 802-657-4401, WHEN APCH CLSD CTC BOSTON ARTCC AT 603-879-6859.

Instrument Procedures

There are no published instrument procedures at NY83.

Some nearby airports with instrument procedures:

KBTV - Burlington International Airport (13 nm NE)
KPBG - Plattsburgh International Airport (22 nm N)
4B6 - Ticonderoga Municipal Airport (26 nm S)
KLKP - Lake Placid Airport (26 nm W)
KMPV - Edward F Knapp State Airport (34 nm E)
 
Loc | Ops | Rwys | IFR | FBO | Links
Com | Nav | Svcs | Stats | Notes
Area around NY83 (Essex Boatworks Seaplane Base)
 
Road maps at: MapQuest Bing Google
 
Aerial photo
No photo
 
Sectional chart

 
Airport distance calculator
Flying to Essex Boatworks Seaplane Base? Find the distance to fly.

From to NY83

Sunrise and sunset
Times for 11-Aug-2020
 Local
(UTC-4)
 Zulu
(UTC)
Morning civil twilight05:2209:22
Sunrise05:5409:54
Sunset20:0300:03
Evening civil twilight20:3500:35

Current date and time
Zulu (UTC)  11-Aug-2020 11:12:57
Local (UTC-4)  11-Aug-2020 07:12:57
 
METAR
KBTV 
13nm NE 
111054Z 19006KT 10SM FEW200 23/18 A2993 RMK AO2 SLP132 T02330183
KPBG 
22nm N 
111053Z AUTO 00000KT 4SM BR CLR 19/18 A2991 RMK AO2 SLP127 T01890183
K6B0 
22nm SE 
102015Z AUTO 23009G22KT 200V270 10SM SCT033 SCT043 BKN075 27/20 A2997 RMK AO2 LTG DSNT SE THRU W T02720196
TAF
KBTV 
13nm NE 
110524Z 1106/1206 18005KT P6SM VCFG SKC TEMPO 1107/1111 3SM BR SCT003 FM111200 18008KT P6SM FEW080 SCT250 FM111800 19010G18KT P6SM VCSH SCT200 FM120000 18008KT P6SM VCSH SCT120
NOTAMs
Click for the latest NOTAMs
NOTAMs are issued by the DoD/FAA and will open in a separate window not controlled by AirNav.

 

 
 

Would you like to see your business listed on this page?

 If your business provides an interesting product or service to pilots, flight crews, aircraft, or users of the Essex Boatworks Seaplane Base, you should consider listing it here.  To start the listing process, click on the button below
 
Add a business
 

Other Pages about Essex Boatworks Seaplane Base

Update a link
 
Copyright © AirNav, LLC. All rights reserved. Privacy Policy  Contact